createdAt,value
2023-01-05T00:01:40.138Z,10.53
2023-01-05T00:04:08.833Z,10.37
2023-01-05T00:06:37.634Z,8.53
2023-01-05T00:09:06.670Z,9.80
2023-01-05T00:11:53.687Z,10.20
2023-01-05T00:14:42.163Z,9.00
2023-01-05T00:17:39.216Z,7.03
2023-01-05T00:20:29.243Z,8.03
2023-01-05T00:22:57.772Z,8.13
2023-01-05T00:25:27.290Z,8.37
2023-01-05T00:27:58.544Z,8.27
2023-01-05T00:30:29.019Z,9.07
2023-01-05T00:32:57.551Z,8.97
2023-01-05T00:35:26.016Z,8.20
2023-01-05T00:37:54.540Z,7.13
2023-01-05T00:40:23.893Z,7.93
2023-01-05T00:42:52.557Z,7.10
2023-01-05T00:45:22.457Z,7.73
2023-01-05T00:47:52.087Z,7.93
2023-01-05T00:50:21.267Z,8.80
2023-01-05T00:52:50.358Z,8.33
2023-01-05T00:55:18.751Z,7.27
2023-01-05T00:57:47.119Z,8.83
2023-01-05T01:00:19.156Z,8.83
2023-01-05T01:02:48.857Z,11.07
2023-01-05T01:05:17.401Z,8.43
2023-01-05T01:07:45.878Z,9.00
2023-01-05T01:10:14.329Z,8.73
2023-01-05T01:12:42.773Z,8.27
2023-01-05T01:15:11.695Z,9.33
2023-01-05T01:17:40.107Z,10.33
2023-01-05T01:20:11.060Z,8.93
2023-01-05T01:22:39.687Z,11.07
2023-01-05T01:25:08.438Z,9.87
2023-01-05T01:27:36.641Z,8.97
2023-01-05T01:30:05.526Z,10.70
2023-01-05T01:32:34.006Z,10.07
2023-01-05T01:35:02.452Z,11.63
2023-01-05T01:37:32.341Z,11.73
2023-01-05T01:40:00.860Z,9.93
2023-01-05T01:42:29.421Z,11.50
2023-01-05T01:44:59.705Z,11.00
2023-01-05T01:47:38.852Z,10.70
2023-01-05T01:50:14.355Z,12.47
2023-01-05T01:52:46.209Z,11.23
2023-01-05T01:55:15.521Z,10.17
2023-01-05T01:57:46.399Z,10.20
2023-01-05T02:00:15.706Z,11.40
2023-01-05T02:02:44.165Z,9.90
2023-01-05T02:05:13.970Z,11.40
2023-01-05T02:07:47.199Z,9.63
2023-01-05T02:10:17.915Z,10.47
2023-01-05T02:13:01.368Z,10.30
2023-01-05T02:15:39.636Z,10.60
2023-01-05T02:18:22.639Z,10.57
2023-01-05T02:21:13.399Z,9.50
2023-01-05T02:24:09.030Z,9.63
2023-01-05T02:27:28.645Z,11.27
2023-01-05T02:30:27.540Z,8.10
2023-01-05T02:33:00.675Z,9.33
2023-01-05T02:35:35.096Z,11.67
2023-01-05T02:38:11.587Z,11.67
2023-01-05T02:40:44.816Z,10.43
2023-01-05T02:43:15.250Z,10.17
2023-01-05T02:45:43.725Z,9.50
2023-01-05T02:48:13.478Z,11.50
2023-01-05T02:50:45.973Z,10.03
2023-01-05T02:53:20.387Z,12.40
2023-01-05T02:55:52.603Z,10.37
2023-01-05T02:58:24.457Z,10.67
2023-01-05T03:00:56.311Z,9.67
2023-01-05T03:03:30.687Z,10.27
2023-01-05T03:06:04.297Z,9.47
2023-01-05T03:08:34.364Z,9.97
2023-01-05T03:11:22.265Z,10.50
2023-01-05T03:13:54.794Z,10.63
2023-01-05T03:16:27.322Z,10.80
2023-01-05T03:19:15.335Z,10.87
2023-01-05T03:22:02.460Z,11.10
2023-01-05T03:24:48.411Z,10.90
2023-01-05T03:27:35.007Z,11.07
2023-01-05T03:30:20.829Z,10.83
2023-01-05T03:33:10.881Z,11.23
2023-01-05T03:35:45.298Z,11.77
2023-01-05T03:38:18.725Z,10.90
2023-01-05T03:40:47.687Z,9.47
2023-01-05T03:43:16.153Z,10.97
2023-01-05T03:45:47.396Z,9.83
2023-01-05T03:48:15.716Z,11.03
2023-01-05T03:50:45.704Z,11.03
2023-01-05T03:53:14.340Z,11.33
2023-01-05T03:55:42.701Z,9.47
2023-01-05T03:58:11.269Z,11.40
2023-01-05T04:00:39.737Z,12.00
2023-01-05T04:03:09.228Z,11.37
2023-01-05T04:05:37.791Z,11.53
2023-01-05T04:08:07.815Z,10.70
2023-01-05T04:10:36.274Z,11.50
2023-01-05T04:13:04.923Z,11.37
2023-01-05T04:15:33.304Z,9.77
2023-01-05T04:18:01.750Z,11.07
2023-01-05T04:20:30.169Z,11.20
2023-01-05T04:22:58.577Z,8.57
2023-01-05T04:25:28.103Z,10.57
2023-01-05T04:27:56.657Z,11.33
2023-01-05T04:30:25.061Z,9.10
2023-01-05T04:32:54.355Z,11.50
2023-01-05T04:35:22.706Z,10.27
2023-01-05T04:37:51.141Z,11.10
2023-01-05T04:40:19.410Z,10.77
2023-01-05T04:42:49.581Z,11.60
2023-01-05T04:45:18.198Z,12.37
2023-01-05T04:47:46.560Z,11.90
2023-01-05T04:50:14.991Z,10.67
2023-01-05T04:52:43.542Z,11.57
2023-01-05T04:55:12.012Z,11.93
2023-01-05T04:57:40.505Z,11.63
2023-01-05T05:00:11.710Z,10.40
2023-01-05T05:02:40.229Z,10.23
2023-01-05T05:05:09.097Z,11.87
2023-01-05T05:07:37.573Z,11.17
2023-01-05T05:10:06.365Z,10.80
2023-01-05T05:12:35.046Z,12.67
2023-01-05T05:15:03.461Z,10.73
2023-01-05T05:17:32.997Z,10.63
2023-01-05T05:20:01.431Z,11.70
2023-01-05T05:22:30.063Z,13.57
2023-01-05T05:24:58.408Z,11.17
2023-01-05T05:27:26.932Z,12.37
2023-01-05T05:29:55.359Z,11.60
2023-01-05T05:32:24.180Z,11.80
2023-01-05T05:34:53.837Z,10.87
2023-01-05T05:37:22.302Z,12.70
2023-01-05T05:39:50.659Z,12.33
2023-01-05T05:42:19.086Z,12.07
2023-01-05T05:44:47.512Z,11.27
2023-01-05T05:47:15.905Z,12.33
2023-01-05T05:49:44.354Z,12.07
2023-01-05T05:52:14.149Z,12.10
2023-01-05T05:54:42.664Z,11.80
2023-01-05T05:57:11.087Z,11.67
2023-01-05T05:59:39.486Z,11.77
2023-01-05T06:02:08.327Z,11.43
2023-01-05T06:04:36.747Z,11.07
2023-01-05T06:07:05.094Z,11.27
2023-01-05T06:09:34.676Z,11.40
2023-01-05T06:12:03.212Z,10.17
2023-01-05T06:14:31.568Z,10.80
2023-01-05T06:17:00.656Z,10.90
2023-01-05T06:19:29.091Z,10.37
2023-01-05T06:21:57.574Z,11.47
2023-01-05T06:24:25.987Z,12.40
2023-01-05T06:26:55.881Z,11.47
2023-01-05T06:29:24.334Z,11.13
2023-01-05T06:31:52.983Z,11.27
2023-01-05T06:34:21.465Z,12.20
2023-01-05T06:36:49.791Z,12.07
2023-01-05T06:39:18.244Z,12.07
2023-01-05T06:41:46.925Z,12.67
2023-01-05T06:44:16.568Z,11.53
2023-01-05T06:46:44.800Z,13.13
2023-01-05T06:49:14.728Z,13.17
2023-01-05T06:51:43.489Z,11.57
2023-01-05T06:54:11.861Z,11.13
2023-01-05T06:56:40.297Z,14.27
2023-01-05T06:59:08.704Z,12.20
2023-01-05T07:01:38.236Z,11.80
2023-01-05T07:04:06.760Z,12.13
2023-01-05T07:06:36.623Z,12.20
2023-01-05T07:09:05.248Z,12.13
2023-01-05T07:11:33.930Z,12.27
2023-01-05T07:14:02.487Z,12.37
2023-01-05T07:16:31.008Z,11.40
2023-01-05T07:19:00.681Z,9.30
2023-01-05T07:21:29.221Z,11.07
2023-01-05T07:23:57.680Z,10.77
2023-01-05T07:26:26.010Z,11.47
2023-01-05T07:28:54.719Z,10.47
2023-01-05T07:31:23.461Z,11.93
2023-01-05T07:33:51.862Z,12.27
2023-01-05T07:36:21.778Z,9.70
2023-01-05T07:38:50.207Z,10.20
2023-01-05T07:41:18.630Z,9.67
2023-01-05T07:43:50.247Z,10.90
2023-01-05T07:46:18.603Z,11.63
2023-01-05T07:48:47.001Z,11.33
2023-01-05T07:51:15.545Z,10.80
2023-01-05T07:53:45.500Z,10.03
2023-01-05T07:56:14.427Z,11.03
2023-01-05T07:58:44.004Z,10.70
2023-01-05T08:01:14.725Z,10.27
2023-01-05T08:03:43.044Z,9.97
2023-01-05T08:06:13.293Z,10.33
2023-01-05T08:08:42.516Z,11.37
2023-01-05T08:11:15.411Z,10.10
2023-01-05T08:14:02.760Z,10.00
2023-01-05T08:16:33.383Z,9.10
2023-01-05T08:19:04.213Z,10.70
2023-01-05T08:21:35.031Z,10.93
2023-01-05T08:24:03.451Z,9.33
2023-01-05T08:26:33.010Z,10.17
2023-01-05T08:29:01.419Z,10.77
2023-01-05T08:31:31.408Z,11.17
2023-01-05T08:34:01.504Z,10.17
2023-01-05T08:36:31.304Z,10.93
2023-01-05T08:39:02.242Z,10.23
2023-01-05T08:41:35.807Z,11.20
2023-01-05T08:44:05.771Z,9.97
2023-01-05T08:46:36.156Z,11.13
2023-01-05T08:49:06.797Z,10.67
2023-01-05T08:51:35.658Z,9.73
2023-01-05T08:54:03.987Z,10.13
2023-01-05T08:56:38.690Z,8.40
2023-01-05T08:59:07.676Z,10.03
2023-01-05T09:01:36.878Z,10.03
2023-01-05T09:04:05.415Z,10.77
2023-01-05T09:06:33.823Z,11.53
2023-01-05T09:09:02.137Z,11.30
2023-01-05T09:11:30.948Z,9.87
2023-01-05T09:14:03.073Z,9.90
2023-01-05T09:19:21.454Z,8.27
2023-01-05T09:21:50.138Z,8.57
2023-01-05T09:24:18.547Z,10.13
2023-01-05T09:26:47.121Z,8.97
2023-01-05T09:29:16.798Z,9.37
2023-01-05T09:31:45.642Z,8.73
2023-01-05T09:34:14.147Z,8.80
2023-01-05T09:36:42.806Z,8.47
2023-01-05T09:39:11.365Z,8.67
2023-01-05T09:41:45.039Z,8.57
2023-01-05T09:44:24.971Z,6.93
2023-01-05T09:46:56.094Z,7.87
2023-01-05T09:49:27.536Z,8.03
2023-01-05T09:51:59.967Z,9.33
2023-01-05T09:54:30.810Z,9.10
2023-01-05T09:57:09.471Z,9.07
2023-01-05T09:59:42.146Z,8.33
2023-01-05T10:02:21.435Z,8.87
2023-01-05T10:04:51.023Z,9.13
2023-01-05T10:07:27.940Z,8.90
2023-01-05T10:09:59.321Z,9.00
2023-01-05T10:12:53.154Z,9.80
2023-01-05T10:15:23.355Z,8.60
2023-01-05T10:17:51.943Z,9.23
2023-01-05T10:20:29.121Z,8.50
2023-01-05T10:23:05.216Z,8.83
2023-01-05T10:25:40.700Z,9.97
2023-01-05T10:28:33.413Z,8.47
2023-01-05T10:31:09.075Z,8.40
2023-01-05T10:33:53.566Z,8.73
2023-01-05T10:39:42.833Z,8.60
2023-01-05T10:42:20.419Z,10.93
2023-01-05T10:44:59.023Z,8.97
2023-01-05T10:47:32.662Z,10.60
2023-01-05T10:50:02.178Z,10.57
2023-01-05T10:52:31.315Z,8.83
2023-01-05T10:55:00.783Z,8.93
2023-01-05T10:57:36.879Z,11.03
2023-01-05T11:00:10.442Z,10.90
2023-01-05T11:02:44.248Z,9.20
2023-01-05T11:05:37.449Z,9.43
2023-01-05T11:08:08.404Z,9.60
2023-01-05T11:10:39.289Z,8.40
2023-01-05T11:13:18.407Z,8.70
2023-01-05T11:15:53.997Z,8.77
2023-01-05T11:18:32.299Z,10.00
2023-01-05T11:21:08.420Z,8.73
2023-01-05T11:23:38.974Z,8.07
2023-01-05T11:26:30.457Z,8.30
2023-01-05T11:29:04.338Z,8.20
2023-01-05T11:31:38.186Z,6.23
2023-01-05T11:34:16.246Z,6.53
2023-01-05T11:36:52.251Z,6.03
2023-01-05T11:39:27.065Z,7.73
2023-01-05T11:42:26.788Z,7.93
2023-01-05T11:44:57.091Z,9.47
2023-01-05T11:47:29.597Z,8.57
2023-01-05T11:50:09.542Z,8.43
2023-01-05T11:52:40.349Z,7.63
2023-01-05T11:55:33.772Z,8.03
2023-01-05T11:58:23.147Z,8.37
2023-01-05T12:01:23.348Z,7.97
2023-01-05T12:04:19.611Z,7.67
2023-01-05T12:07:08.320Z,7.67
2023-01-05T12:09:39.431Z,8.30
2023-01-05T12:12:26.048Z,8.30
2023-01-05T12:15:23.282Z,8.33
2023-01-05T12:18:01.410Z,8.13
2023-01-05T12:20:46.439Z,7.37
2023-01-05T12:23:45.590Z,7.97
2023-01-05T12:26:22.996Z,8.37
2023-01-05T12:35:42.993Z,7.90
2023-01-05T12:38:25.229Z,7.10
2023-01-05T12:41:10.241Z,7.53
2023-01-05T12:43:46.261Z,8.20
2023-01-05T12:46:29.393Z,8.00
2023-01-05T12:49:01.909Z,8.00
2023-01-05T12:51:37.483Z,8.33
2023-01-05T12:54:11.281Z,8.13
2023-01-05T12:56:45.460Z,7.80
2023-01-05T12:59:19.023Z,8.70
2023-01-05T13:01:53.620Z,8.37
2023-01-05T13:04:46.843Z,8.00
2023-01-05T13:07:24.366Z,7.80
2023-01-05T13:10:02.625Z,6.57
2023-01-05T13:12:35.390Z,6.83
2023-01-05T13:15:08.861Z,8.07
2023-01-05T13:17:42.801Z,5.80
2023-01-05T13:20:27.565Z,7.00
2023-01-05T13:23:01.294Z,6.50
2023-01-05T13:25:33.805Z,6.63
2023-01-05T13:30:44.049Z,6.83
2023-01-05T13:33:32.057Z,6.65
2023-01-05T13:36:15.353Z,8.98
2023-01-05T13:39:04.800Z,10.30
2023-01-05T13:41:58.805Z,10.40
2023-01-05T13:45:00.376Z,8.17
2023-01-05T13:47:56.499Z,7.00
2023-01-05T13:50:49.086Z,4.50
2023-01-05T13:53:19.667Z,4.67
2023-01-05T13:55:54.327Z,4.57
2023-01-05T13:58:34.736Z,5.00
2023-01-05T14:01:06.897Z,6.53
2023-01-05T14:03:39.560Z,6.63
2023-01-05T14:06:17.569Z,6.37
2023-01-05T14:08:55.168Z,7.40
2023-01-05T14:11:24.907Z,7.50
2023-01-05T14:13:58.393Z,7.50
2023-01-05T14:16:54.091Z,7.77
2023-01-05T14:19:47.633Z,7.73
2023-01-05T14:22:35.722Z,6.53
2023-01-05T14:25:37.021Z,7.87
2023-01-05T14:28:43.371Z,6.75
2023-01-05T14:31:50.999Z,7.10
2023-01-05T14:34:23.105Z,4.03
2023-01-05T14:37:02.848Z,4.50
2023-01-05T14:39:39.047Z,3.97
2023-01-05T14:42:17.370Z,3.10
2023-01-05T14:44:49.850Z,2.57
2023-01-05T14:47:33.248Z,2.25
2023-01-05T14:50:05.013Z,2.10
2023-01-05T14:52:56.672Z,2.60
2023-01-05T14:55:38.369Z,3.00
2023-01-05T14:58:13.309Z,3.67
2023-01-05T15:00:52.917Z,4.63
2023-01-05T15:03:30.083Z,4.38
2023-01-05T15:06:06.604Z,4.22
2023-01-05T15:09:05.416Z,3.60
2023-01-05T15:12:03.030Z,3.03
2023-01-05T15:14:56.868Z,3.38
2023-01-05T15:17:49.477Z,2.90
2023-01-05T15:20:59.609Z,2.80
2023-01-05T15:24:19.405Z,2.20
2023-01-05T15:27:16.241Z,2.92
2023-01-05T15:30:15.478Z,3.25
2023-01-05T15:32:45.885Z,9.38
2023-01-05T15:35:18.761Z,6.50
2023-01-05T15:37:48.747Z,4.95
2023-01-05T15:40:33.131Z,5.35
2023-01-05T15:43:05.270Z,6.00
2023-01-05T15:45:35.369Z,6.18
2023-01-05T15:48:09.256Z,7.65
2023-01-05T15:50:45.321Z,3.00
2023-01-05T15:53:25.006Z,3.22
2023-01-05T15:55:54.920Z,3.70
2023-01-05T15:58:25.647Z,2.80
2023-01-05T16:01:06.040Z,3.13
2023-01-05T16:03:35.979Z,3.55
2023-01-05T16:06:07.598Z,2.92
2023-01-05T16:08:38.272Z,2.20
2023-01-05T16:11:11.811Z,2.78
2023-01-05T16:13:46.297Z,2.57
2023-01-05T16:16:49.636Z,3.07
2023-01-05T16:19:14.312Z,2.70
2023-01-05T16:21:46.543Z,2.90
2023-01-05T16:24:25.891Z,3.20
2023-01-05T16:26:55.881Z,4.13
2023-01-05T16:29:34.600Z,4.07
2023-01-05T16:32:03.130Z,3.47
2023-01-05T16:34:33.134Z,4.27
2023-01-05T16:37:03.257Z,5.93
2023-01-05T16:39:37.239Z,6.00
2023-01-05T16:42:40.207Z,5.53
2023-01-05T16:45:11.113Z,4.83
2023-01-05T16:47:42.243Z,5.60
2023-01-05T16:50:47.930Z,4.27
2023-01-05T16:53:17.315Z,3.93
2023-01-05T16:55:45.795Z,4.67
2023-01-05T16:58:42.190Z,4.50
2023-01-05T17:01:27.474Z,5.15
2023-01-05T17:03:55.957Z,5.50
2023-01-05T17:06:28.273Z,4.67
2023-01-05T17:08:58.488Z,4.90
2023-01-05T17:11:30.103Z,3.73
2023-01-05T17:13:59.654Z,4.53
2023-01-05T17:16:28.494Z,3.80
2023-01-05T17:18:59.384Z,3.55
2023-01-05T17:21:33.553Z,3.72
2023-01-05T17:24:02.216Z,3.72
2023-01-05T17:26:31.660Z,3.65
2023-01-05T17:31:37.370Z,3.97
2023-01-05T17:34:05.831Z,3.80
2023-01-05T17:36:36.360Z,5.50
2023-01-05T17:39:05.163Z,5.68
2023-01-05T17:41:33.399Z,6.75
2023-01-05T17:44:03.322Z,7.10
2023-01-05T17:46:34.873Z,5.85
2023-01-05T17:49:03.850Z,7.57
2023-01-05T17:51:32.562Z,6.10
2023-01-05T17:54:01.362Z,6.53
2023-01-05T17:56:29.903Z,6.32
2023-01-05T17:58:58.316Z,7.83
2023-01-05T18:01:28.287Z,7.45
2023-01-05T18:03:56.655Z,7.65
2023-01-05T18:06:25.072Z,7.65
2023-01-05T18:08:53.472Z,8.30
2023-01-05T18:11:22.227Z,7.93
2023-01-05T18:13:50.738Z,8.38
2023-01-05T18:16:19.105Z,9.30
2023-01-05T18:18:48.907Z,6.13
2023-01-05T18:21:17.343Z,5.28
2023-01-05T18:23:45.660Z,4.80
2023-01-05T18:26:14.452Z,4.87
2023-01-05T18:28:42.836Z,5.40
2023-01-05T18:31:12.780Z,4.07
2023-01-05T18:33:41.324Z,3.93
2023-01-05T18:36:14.507Z,3.72
2023-01-05T18:38:43.024Z,4.82
2023-01-05T18:41:11.980Z,4.43
2023-01-05T18:43:40.455Z,4.60
2023-01-05T18:46:09.037Z,4.40
2023-01-05T18:48:37.564Z,4.57
2023-01-05T18:51:10.931Z,4.33
2023-01-05T18:53:39.914Z,4.55
2023-01-05T18:56:09.137Z,4.80
2023-01-05T18:58:37.921Z,4.63
2023-01-05T19:01:10.303Z,4.80
2023-01-05T19:03:39.468Z,4.33
2023-01-05T19:06:09.531Z,6.23
2023-01-05T19:08:39.453Z,8.00
2023-01-05T19:11:15.745Z,9.13
2023-01-05T19:13:45.438Z,4.70
2023-01-05T19:16:15.579Z,4.85
2023-01-05T19:18:44.346Z,4.35
2023-01-05T19:21:12.970Z,3.40
2023-01-05T19:23:42.796Z,3.35
2023-01-05T19:26:11.575Z,3.67
2023-01-05T19:28:41.347Z,4.53
2023-01-05T19:31:11.406Z,6.13
2023-01-05T19:33:40.542Z,6.25
2023-01-05T19:36:11.314Z,9.25
2023-01-05T19:38:40.102Z,8.30
2023-01-05T19:41:12.830Z,8.75
2023-01-05T19:43:41.669Z,6.32
2023-01-05T19:46:12.483Z,4.80
2023-01-05T19:48:42.273Z,6.82
2023-01-05T19:51:11.613Z,7.75
2023-01-05T19:53:40.755Z,6.57
2023-01-05T19:56:12.981Z,7.22
2023-01-05T19:58:42.568Z,5.00
2023-01-05T20:01:13.845Z,4.82
2023-01-05T20:03:43.496Z,4.97
2023-01-05T20:06:14.976Z,5.55
2023-01-05T20:08:43.660Z,6.43
2023-01-05T20:11:15.143Z,6.50
2023-01-05T20:13:43.485Z,5.35
2023-01-05T20:16:13.541Z,5.00
2023-01-05T20:18:41.855Z,6.45
2023-01-05T20:21:10.256Z,5.00
2023-01-05T20:23:40.247Z,4.60
2023-01-05T20:26:10.249Z,5.40
2023-01-05T20:28:40.828Z,4.20
2023-01-05T20:31:19.388Z,4.75
2023-01-05T20:33:47.886Z,5.00
2023-01-05T20:36:16.352Z,4.68
2023-01-05T20:38:45.263Z,3.58
2023-01-05T20:41:16.143Z,2.67
2023-01-05T20:43:47.022Z,2.35
2023-01-05T20:46:16.967Z,2.83
2023-01-05T20:48:45.485Z,2.65
2023-01-05T20:51:15.421Z,4.15
2023-01-05T20:53:44.262Z,4.03
2023-01-05T20:56:16.041Z,4.47
2023-01-05T20:58:47.217Z,4.90
2023-01-05T21:01:16.450Z,5.20
2023-01-05T21:03:45.950Z,6.40
2023-01-05T21:06:17.116Z,6.20
2023-01-05T21:08:48.498Z,7.07
2023-01-05T21:11:18.958Z,5.97
2023-01-05T21:13:49.800Z,7.20
2023-01-05T21:16:20.139Z,6.90
2023-01-05T21:18:48.730Z,7.47
2023-01-05T21:21:19.056Z,6.37
2023-01-05T21:23:48.253Z,5.53
2023-01-05T21:26:17.801Z,5.00
2023-01-05T21:28:48.681Z,8.13
2023-01-05T21:31:19.070Z,4.47
2023-01-05T21:33:48.244Z,4.57
2023-01-05T21:36:18.320Z,4.00
2023-01-05T21:39:00.140Z,3.30
2023-01-05T21:41:49.392Z,3.20
2023-01-05T21:44:20.117Z,2.70
2023-01-05T21:46:49.239Z,2.03
2023-01-05T21:49:18.609Z,2.38
2023-01-05T21:52:04.877Z,5.40
2023-01-05T21:54:50.692Z,2.47
2023-01-05T21:57:19.098Z,2.50
2023-01-05T21:59:49.116Z,2.58
2023-01-05T22:02:17.750Z,7.07
2023-01-05T22:04:46.225Z,3.05
2023-01-05T22:07:14.495Z,3.30
2023-01-05T22:09:43.003Z,3.03
2023-01-05T22:12:11.566Z,2.80
2023-01-05T22:14:40.473Z,2.30
2023-01-05T22:17:10.886Z,2.45
2023-01-05T22:19:39.319Z,2.88
2023-01-05T22:22:07.739Z,3.27
2023-01-05T22:24:36.173Z,2.78
2023-01-05T22:27:04.985Z,2.40
2023-01-05T22:29:33.394Z,2.55
2023-01-05T22:32:03.111Z,2.70
2023-01-05T22:34:33.644Z,2.03
2023-01-05T22:37:01.916Z,1.85
2023-01-05T22:39:30.429Z,2.40
2023-01-05T22:41:59.024Z,2.20
2023-01-05T22:44:27.450Z,2.30
2023-01-05T22:46:55.888Z,2.40
2023-01-05T22:49:24.269Z,2.17
2023-01-05T22:51:54.260Z,2.80
2023-01-05T22:54:22.735Z,2.40
2023-01-05T22:56:51.135Z,2.30
2023-01-05T22:59:19.701Z,2.08
2023-01-05T23:01:48.273Z,2.53
2023-01-05T23:04:17.223Z,2.25
2023-01-05T23:06:45.711Z,2.35
2023-01-05T23:09:17.316Z,2.33
2023-01-05T23:11:46.885Z,2.55
2023-01-05T23:14:18.338Z,2.38
2023-01-05T23:16:47.117Z,2.30
2023-01-05T23:19:16.907Z,2.78
2023-01-05T23:21:45.841Z,2.38
2023-01-05T23:24:15.844Z,2.65
2023-01-05T23:26:44.255Z,2.60
2023-01-05T23:29:12.744Z,2.15
2023-01-05T23:31:41.299Z,2.30
2023-01-05T23:34:09.718Z,2.88
2023-01-05T23:36:38.228Z,2.20
2023-01-05T23:39:06.655Z,2.53
2023-01-05T23:41:36.367Z,2.80
2023-01-05T23:44:04.731Z,2.63
2023-01-05T23:46:32.996Z,2.55
2023-01-05T23:49:01.556Z,2.35
2023-01-05T23:51:30.193Z,2.77
2023-01-05T23:53:58.803Z,2.17
2023-01-05T23:56:29.795Z,2.50
2023-01-05T23:59:04.307Z,2.72
